sensor_id;sensor_type;location;lat;lon;timestamp;temperature;humidity
41294;DHT22;27037;52.010;4.446;2023-04-06T00:00:25;6.60;99.90
41294;DHT22;27037;52.010;4.446;2023-04-06T00:02:51;6.60;99.90
41294;DHT22;27037;52.010;4.446;2023-04-06T00:05:18;6.60;99.90
41294;DHT22;27037;52.010;4.446;2023-04-06T00:07:44;6.60;99.90
41294;DHT22;27037;52.010;4.446;2023-04-06T00:10:09;6.60;99.90
41294;DHT22;27037;52.010;4.446;2023-04-06T00:12:35;6.60;99.90
41294;DHT22;27037;52.010;4.446;2023-04-06T00:15:01;6.50;99.90
41294;DHT22;27037;52.010;4.446;2023-04-06T00:17:27;6.50;99.90
41294;DHT22;27037;52.010;4.446;2023-04-06T00:19:53;6.50;99.90
41294;DHT22;27037;52.010;4.446;2023-04-06T00:22:18;6.50;99.90
41294;DHT22;27037;52.010;4.446;2023-04-06T00:24:44;6.50;99.90
41294;DHT22;27037;52.010;4.446;2023-04-06T00:27:10;6.40;99.90
41294;DHT22;27037;52.010;4.446;2023-04-06T00:29:35;6.40;99.90
41294;DHT22;27037;52.010;4.446;2023-04-06T00:32:02;6.40;99.90
41294;DHT22;27037;52.010;4.446;2023-04-06T00:34:27;6.40;99.90
41294;DHT22;27037;52.010;4.446;2023-04-06T00:36:53;6.40;99.90
41294;DHT22;27037;52.010;4.446;2023-04-06T00:39:18;6.40;99.90
41294;DHT22;27037;52.010;4.446;2023-04-06T00:41:48;6.30;99.90
41294;DHT22;27037;52.010;4.446;2023-04-06T00:44:15;6.30;99.90
41294;DHT22;27037;52.010;4.446;2023-04-06T00:46:40;6.30;99.90
41294;DHT22;27037;52.010;4.446;2023-04-06T00:49:06;6.30;99.90
41294;DHT22;27037;52.010;4.446;2023-04-06T00:51:32;6.30;99.90
41294;DHT22;27037;52.010;4.446;2023-04-06T00:53:57;6.30;99.90
41294;DHT22;27037;52.010;4.446;2023-04-06T00:56:23;6.30;99.90
41294;DHT22;27037;52.010;4.446;2023-04-06T00:58:49;6.30;99.90
41294;DHT22;27037;52.010;4.446;2023-04-06T01:01:15;6.30;99.90
41294;DHT22;27037;52.010;4.446;2023-04-06T01:03:40;6.30;99.90
41294;DHT22;27037;52.010;4.446;2023-04-06T01:06:07;6.30;99.90
41294;DHT22;27037;52.010;4.446;2023-04-06T01:08:33;6.30;99.90
41294;DHT22;27037;52.010;4.446;2023-04-06T01:11:01;6.30;99.90
41294;DHT22;27037;52.010;4.446;2023-04-06T01:13:27;6.30;99.90
41294;DHT22;27037;52.010;4.446;2023-04-06T01:15:53;6.30;99.90
41294;DHT22;27037;52.010;4.446;2023-04-06T01:18:19;6.30;99.90
41294;DHT22;27037;52.010;4.446;2023-04-06T01:20:50;6.30;99.90
41294;DHT22;27037;52.010;4.446;2023-04-06T01:23:16;6.30;99.90
41294;DHT22;27037;52.010;4.446;2023-04-06T01:25:42;6.40;99.90
41294;DHT22;27037;52.010;4.446;2023-04-06T01:28:07;6.40;99.90
41294;DHT22;27037;52.010;4.446;2023-04-06T01:30:33;6.40;99.90
41294;DHT22;27037;52.010;4.446;2023-04-06T01:32:58;6.40;99.90
41294;DHT22;27037;52.010;4.446;2023-04-06T01:35:28;6.40;99.90
41294;DHT22;27037;52.010;4.446;2023-04-06T01:37:54;6.40;99.90
41294;DHT22;27037;52.010;4.446;2023-04-06T01:40:20;6.40;99.90
41294;DHT22;27037;52.010;4.446;2023-04-06T01:42:46;6.50;99.90
41294;DHT22;27037;52.010;4.446;2023-04-06T01:45:11;6.50;99.90
41294;DHT22;27037;52.010;4.446;2023-04-06T01:47:37;6.50;99.90
41294;DHT22;27037;52.010;4.446;2023-04-06T01:50:03;6.50;99.90
41294;DHT22;27037;52.010;4.446;2023-04-06T01:52:32;6.50;99.90
41294;DHT22;27037;52.010;4.446;2023-04-06T01:54:58;6.50;99.90
41294;DHT22;27037;52.010;4.446;2023-04-06T01:57:24;6.60;99.90
41294;DHT22;27037;52.010;4.446;2023-04-06T01:59:51;6.60;99.90
41294;DHT22;27037;52.010;4.446;2023-04-06T02:02:16;6.60;99.90
41294;DHT22;27037;52.010;4.446;2023-04-06T02:04:42;6.60;99.90
41294;DHT22;27037;52.010;4.446;2023-04-06T02:07:08;6.70;99.90
41294;DHT22;27037;52.010;4.446;2023-04-06T02:09:33;6.70;99.90
41294;DHT22;27037;52.010;4.446;2023-04-06T02:11:59;6.70;99.90
41294;DHT22;27037;52.010;4.446;2023-04-06T02:14:26;6.70;99.90
41294;DHT22;27037;52.010;4.446;2023-04-06T02:16:51;6.70;99.90
41294;DHT22;27037;52.010;4.446;2023-04-06T02:19:17;6.70;99.90
41294;DHT22;27037;52.010;4.446;2023-04-06T02:21:42;6.80;99.90
41294;DHT22;27037;52.010;4.446;2023-04-06T02:24:08;6.80;99.90
41294;DHT22;27037;52.010;4.446;2023-04-06T02:26:33;6.80;99.90
41294;DHT22;27037;52.010;4.446;2023-04-06T02:28:59;6.80;99.90
41294;DHT22;27037;52.010;4.446;2023-04-06T02:31:26;6.80;99.90
41294;DHT22;27037;52.010;4.446;2023-04-06T02:33:52;6.80;99.90
41294;DHT22;27037;52.010;4.446;2023-04-06T02:36:17;6.80;99.90
41294;DHT22;27037;52.010;4.446;2023-04-06T02:38:43;6.80;99.90
41294;DHT22;27037;52.010;4.446;2023-04-06T02:41:09;6.80;99.90
41294;DHT22;27037;52.010;4.446;2023-04-06T02:43:34;6.90;99.90
41294;DHT22;27037;52.010;4.446;2023-04-06T02:46:00;6.90;99.90
41294;DHT22;27037;52.010;4.446;2023-04-06T02:48:25;6.90;99.90
41294;DHT22;27037;52.010;4.446;2023-04-06T02:50:51;6.90;99.90
41294;DHT22;27037;52.010;4.446;2023-04-06T02:53:17;6.90;99.90
41294;DHT22;27037;52.010;4.446;2023-04-06T02:55:42;6.90;99.90
41294;DHT22;27037;52.010;4.446;2023-04-06T02:58:08;6.90;99.90
41294;DHT22;27037;52.010;4.446;2023-04-06T03:00:33;6.90;99.90
41294;DHT22;27037;52.010;4.446;2023-04-06T03:02:59;6.90;99.90
41294;DHT22;27037;52.010;4.446;2023-04-06T03:05:24;6.90;99.90
41294;DHT22;27037;52.010;4.446;2023-04-06T03:07:50;6.90;99.90
41294;DHT22;27037;52.010;4.446;2023-04-06T03:10:16;6.90;99.90
41294;DHT22;27037;52.010;4.446;2023-04-06T03:12:41;6.90;99.90
41294;DHT22;27037;52.010;4.446;2023-04-06T03:15:07;6.90;99.90
41294;DHT22;27037;52.010;4.446;2023-04-06T03:17:33;6.90;99.90
41294;DHT22;27037;52.010;4.446;2023-04-06T03:19:59;6.90;99.90
41294;DHT22;27037;52.010;4.446;2023-04-06T03:22:24;6.90;99.90
41294;DHT22;27037;52.010;4.446;2023-04-06T03:24:50;6.90;99.90
41294;DHT22;27037;52.010;4.446;2023-04-06T03:27:16;6.90;99.90
41294;DHT22;27037;52.010;4.446;2023-04-06T03:29:41;6.90;99.90
41294;DHT22;27037;52.010;4.446;2023-04-06T03:32:07;6.90;99.90
41294;DHT22;27037;52.010;4.446;2023-04-06T03:34:32;6.90;99.90
41294;DHT22;27037;52.010;4.446;2023-04-06T03:36:58;6.90;99.90
41294;DHT22;27037;52.010;4.446;2023-04-06T03:39:24;6.90;99.90
41294;DHT22;27037;52.010;4.446;2023-04-06T03:41:49;6.90;99.90
41294;DHT22;27037;52.010;4.446;2023-04-06T03:44:15;6.90;99.90
41294;DHT22;27037;52.010;4.446;2023-04-06T03:46:40;7.00;99.90
41294;DHT22;27037;52.010;4.446;2023-04-06T03:49:06;6.90;99.90
41294;DHT22;27037;52.010;4.446;2023-04-06T03:51:31;6.90;99.90
41294;DHT22;27037;52.010;4.446;2023-04-06T03:53:57;7.00;99.90
41294;DHT22;27037;52.010;4.446;2023-04-06T03:56:22;7.00;99.90
41294;DHT22;27037;52.010;4.446;2023-04-06T03:58:48;7.00;99.90
41294;DHT22;27037;52.010;4.446;2023-04-06T04:01:17;7.10;99.90
41294;DHT22;27037;52.010;4.446;2023-04-06T04:03:45;7.10;99.90
41294;DHT22;27037;52.010;4.446;2023-04-06T04:06:11;7.10;99.90
41294;DHT22;27037;52.010;4.446;2023-04-06T04:08:37;7.20;99.90
41294;DHT22;27037;52.010;4.446;2023-04-06T04:11:02;7.20;99.90
41294;DHT22;27037;52.010;4.446;2023-04-06T04:13:28;7.20;99.90
41294;DHT22;27037;52.010;4.446;2023-04-06T04:15:53;7.20;99.90
41294;DHT22;27037;52.010;4.446;2023-04-06T04:18:19;7.20;99.90
41294;DHT22;27037;52.010;4.446;2023-04-06T04:20:45;7.20;99.90
41294;DHT22;27037;52.010;4.446;2023-04-06T04:23:11;7.20;99.90
41294;DHT22;27037;52.010;4.446;2023-04-06T04:25:36;7.20;99.90
41294;DHT22;27037;52.010;4.446;2023-04-06T04:28:02;7.20;99.90
41294;DHT22;27037;52.010;4.446;2023-04-06T04:30:28;7.20;99.90
41294;DHT22;27037;52.010;4.446;2023-04-06T04:32:54;7.20;99.90
41294;DHT22;27037;52.010;4.446;2023-04-06T04:35:19;7.20;99.90
41294;DHT22;27037;52.010;4.446;2023-04-06T04:37:45;7.20;99.90
41294;DHT22;27037;52.010;4.446;2023-04-06T04:40:11;7.20;99.90
41294;DHT22;27037;52.010;4.446;2023-04-06T04:42:37;7.20;99.90
41294;DHT22;27037;52.010;4.446;2023-04-06T04:45:02;7.20;99.90
41294;DHT22;27037;52.010;4.446;2023-04-06T04:47:28;7.20;99.90
41294;DHT22;27037;52.010;4.446;2023-04-06T04:49:54;7.20;99.90
41294;DHT22;27037;52.010;4.446;2023-04-06T04:52:19;7.20;99.90
41294;DHT22;27037;52.010;4.446;2023-04-06T04:54:45;7.20;99.90
41294;DHT22;27037;52.010;4.446;2023-04-06T04:57:12;7.20;99.90
41294;DHT22;27037;52.010;4.446;2023-04-06T04:59:38;7.20;99.90
41294;DHT22;27037;52.010;4.446;2023-04-06T05:02:03;7.10;99.90
41294;DHT22;27037;52.010;4.446;2023-04-06T05:04:29;7.20;99.90
41294;DHT22;27037;52.010;4.446;2023-04-06T05:07:08;7.10;99.90
41294;DHT22;27037;52.010;4.446;2023-04-06T05:09:34;7.20;99.90
41294;DHT22;27037;52.010;4.446;2023-04-06T05:12:00;7.10;99.90
41294;DHT22;27037;52.010;4.446;2023-04-06T05:14:27;7.10;99.90
41294;DHT22;27037;52.010;4.446;2023-04-06T05:16:53;7.10;99.90
41294;DHT22;27037;52.010;4.446;2023-04-06T05:19:18;7.10;99.90
41294;DHT22;27037;52.010;4.446;2023-04-06T05:21:44;7.10;99.90
41294;DHT22;27037;52.010;4.446;2023-04-06T05:24:09;7.10;99.90
41294;DHT22;27037;52.010;4.446;2023-04-06T05:26:35;7.20;99.90
41294;DHT22;27037;52.010;4.446;2023-04-06T05:29:01;7.20;99.90
41294;DHT22;27037;52.010;4.446;2023-04-06T05:31:27;7.20;99.90
41294;DHT22;27037;52.010;4.446;2023-04-06T05:33:52;7.20;99.90
41294;DHT22;27037;52.010;4.446;2023-04-06T05:36:24;7.30;99.90
41294;DHT22;27037;52.010;4.446;2023-04-06T05:38:50;7.20;99.90
41294;DHT22;27037;52.010;4.446;2023-04-06T05:41:18;7.30;99.90
41294;DHT22;27037;52.010;4.446;2023-04-06T05:43:43;7.30;99.90
41294;DHT22;27037;52.010;4.446;2023-04-06T05:46:09;7.30;99.90
41294;DHT22;27037;52.010;4.446;2023-04-06T05:48:35;7.30;99.90
41294;DHT22;27037;52.010;4.446;2023-04-06T05:51:01;7.30;99.90
41294;DHT22;27037;52.010;4.446;2023-04-06T05:53:27;7.40;99.90
41294;DHT22;27037;52.010;4.446;2023-04-06T05:55:54;7.40;99.90
41294;DHT22;27037;52.010;4.446;2023-04-06T05:58:20;7.40;99.90
41294;DHT22;27037;52.010;4.446;2023-04-06T06:00:45;7.40;99.90
41294;DHT22;27037;52.010;4.446;2023-04-06T06:03:12;7.40;99.90
41294;DHT22;27037;52.010;4.446;2023-04-06T06:05:38;7.50;99.90
41294;DHT22;27037;52.010;4.446;2023-04-06T06:08:03;7.50;99.90
41294;DHT22;27037;52.010;4.446;2023-04-06T06:10:29;7.50;99.90
41294;DHT22;27037;52.010;4.446;2023-04-06T06:12:55;7.50;99.90
41294;DHT22;27037;52.010;4.446;2023-04-06T06:15:21;7.50;99.90
41294;DHT22;27037;52.010;4.446;2023-04-06T06:17:46;7.60;99.90
41294;DHT22;27037;52.010;4.446;2023-04-06T06:20:12;7.60;99.90
41294;DHT22;27037;52.010;4.446;2023-04-06T06:22:38;7.60;99.90
41294;DHT22;27037;52.010;4.446;2023-04-06T06:25:05;7.60;99.90
41294;DHT22;27037;52.010;4.446;2023-04-06T06:27:31;7.60;99.90
41294;DHT22;27037;52.010;4.446;2023-04-06T06:29:56;7.60;99.90
41294;DHT22;27037;52.010;4.446;2023-04-06T06:32:22;7.70;99.90
41294;DHT22;27037;52.010;4.446;2023-04-06T06:34:47;7.70;99.90
41294;DHT22;27037;52.010;4.446;2023-04-06T06:37:13;7.80;99.90
41294;DHT22;27037;52.010;4.446;2023-04-06T06:39:39;7.80;99.90
41294;DHT22;27037;52.010;4.446;2023-04-06T06:42:05;7.80;99.90
41294;DHT22;27037;52.010;4.446;2023-04-06T06:44:31;7.90;99.90
41294;DHT22;27037;52.010;4.446;2023-04-06T06:46:56;7.90;99.90
41294;DHT22;27037;52.010;4.446;2023-04-06T06:49:22;7.90;99.90
41294;DHT22;27037;52.010;4.446;2023-04-06T06:51:47;8.00;99.90
41294;DHT22;27037;52.010;4.446;2023-04-06T06:54:13;8.00;99.90
41294;DHT22;27037;52.010;4.446;2023-04-06T06:56:39;8.10;99.90
41294;DHT22;27037;52.010;4.446;2023-04-06T06:59:05;8.10;99.90
41294;DHT22;27037;52.010;4.446;2023-04-06T07:01:32;8.20;99.90
41294;DHT22;27037;52.010;4.446;2023-04-06T07:03:59;8.20;99.90
41294;DHT22;27037;52.010;4.446;2023-04-06T07:06:24;8.20;99.90
41294;DHT22;27037;52.010;4.446;2023-04-06T07:08:50;8.30;99.90
41294;DHT22;27037;52.010;4.446;2023-04-06T07:11:16;8.30;99.90
41294;DHT22;27037;52.010;4.446;2023-04-06T07:13:42;8.40;99.90
41294;DHT22;27037;52.010;4.446;2023-04-06T07:16:08;8.40;99.90
41294;DHT22;27037;52.010;4.446;2023-04-06T07:18:33;8.40;99.90
41294;DHT22;27037;52.010;4.446;2023-04-06T07:20:59;8.50;99.90
41294;DHT22;27037;52.010;4.446;2023-04-06T07:23:24;8.50;99.90
41294;DHT22;27037;52.010;4.446;2023-04-06T07:25:50;8.50;99.90
41294;DHT22;27037;52.010;4.446;2023-04-06T07:28:20;8.60;99.90
41294;DHT22;27037;52.010;4.446;2023-04-06T07:30:45;8.60;99.90
41294;DHT22;27037;52.010;4.446;2023-04-06T07:33:11;8.70;99.90
41294;DHT22;27037;52.010;4.446;2023-04-06T07:35:37;8.70;99.90
41294;DHT22;27037;52.010;4.446;2023-04-06T07:38:03;8.80;99.90
41294;DHT22;27037;52.010;4.446;2023-04-06T07:40:29;8.80;99.90
41294;DHT22;27037;52.010;4.446;2023-04-06T07:42:57;8.90;99.90
41294;DHT22;27037;52.010;4.446;2023-04-06T07:45:22;8.90;99.90
41294;DHT22;27037;52.010;4.446;2023-04-06T07:47:50;9.00;99.90
41294;DHT22;27037;52.010;4.446;2023-04-06T07:50:16;9.00;99.90
41294;DHT22;27037;52.010;4.446;2023-04-06T07:52:41;9.00;99.90
41294;DHT22;27037;52.010;4.446;2023-04-06T07:55:07;9.00;99.90
41294;DHT22;27037;52.010;4.446;2023-04-06T07:57:33;9.00;99.90
41294;DHT22;27037;52.010;4.446;2023-04-06T07:59:58;9.00;99.90
41294;DHT22;27037;52.010;4.446;2023-04-06T08:02:24;9.00;99.90
41294;DHT22;27037;52.010;4.446;2023-04-06T08:04:50;9.00;99.90
41294;DHT22;27037;52.010;4.446;2023-04-06T08:07:15;9.10;99.90
41294;DHT22;27037;52.010;4.446;2023-04-06T08:09:41;9.10;99.90
41294;DHT22;27037;52.010;4.446;2023-04-06T08:12:06;9.10;99.90
41294;DHT22;27037;52.010;4.446;2023-04-06T08:14:32;9.00;99.90
41294;DHT22;27037;52.010;4.446;2023-04-06T08:16:57;9.10;99.90
41294;DHT22;27037;52.010;4.446;2023-04-06T08:19:23;9.10;99.90
41294;DHT22;27037;52.010;4.446;2023-04-06T08:21:48;9.00;99.90
41294;DHT22;27037;52.010;4.446;2023-04-06T08:24:14;9.10;99.90
41294;DHT22;27037;52.010;4.446;2023-04-06T08:26:40;9.10;99.90
41294;DHT22;27037;52.010;4.446;2023-04-06T08:29:06;9.10;99.90
41294;DHT22;27037;52.010;4.446;2023-04-06T08:31:35;9.00;99.90
41294;DHT22;27037;52.010;4.446;2023-04-06T08:34:02;9.00;99.90
41294;DHT22;27037;52.010;4.446;2023-04-06T08:36:28;9.00;99.90
41294;DHT22;27037;52.010;4.446;2023-04-06T08:38:54;9.00;99.90
41294;DHT22;27037;52.010;4.446;2023-04-06T08:41:20;9.00;99.90
41294;DHT22;27037;52.010;4.446;2023-04-06T08:44:01;9.00;99.90
41294;DHT22;27037;52.010;4.446;2023-04-06T08:46:28;9.00;99.90
41294;DHT22;27037;52.010;4.446;2023-04-06T08:49:01;9.00;99.90
41294;DHT22;27037;52.010;4.446;2023-04-06T08:51:28;9.10;99.90
41294;DHT22;27037;52.010;4.446;2023-04-06T08:53:54;9.10;99.90
41294;DHT22;27037;52.010;4.446;2023-04-06T08:56:22;9.10;99.90
41294;DHT22;27037;52.010;4.446;2023-04-06T08:58:48;9.10;99.90
41294;DHT22;27037;52.010;4.446;2023-04-06T09:01:14;9.10;99.90
41294;DHT22;27037;52.010;4.446;2023-04-06T09:03:43;9.10;99.90
41294;DHT22;27037;52.010;4.446;2023-04-06T09:06:09;9.10;99.90
41294;DHT22;27037;52.010;4.446;2023-04-06T09:08:38;9.20;99.90
41294;DHT22;27037;52.010;4.446;2023-04-06T09:11:04;9.10;99.90
41294;DHT22;27037;52.010;4.446;2023-04-06T09:13:30;9.20;99.90
41294;DHT22;27037;52.010;4.446;2023-04-06T09:18:32;9.20;99.90
41294;DHT22;27037;52.010;4.446;2023-04-06T09:21:03;9.20;99.90
41294;DHT22;27037;52.010;4.446;2023-04-06T09:23:29;9.10;99.90
41294;DHT22;27037;52.010;4.446;2023-04-06T09:26:09;9.10;99.90
41294;DHT22;27037;52.010;4.446;2023-04-06T09:28:46;9.10;99.90
41294;DHT22;27037;52.010;4.446;2023-04-06T09:31:16;9.10;99.90
41294;DHT22;27037;52.010;4.446;2023-04-06T09:33:44;9.10;99.90
41294;DHT22;27037;52.010;4.446;2023-04-06T09:36:10;9.00;99.90
41294;DHT22;27037;52.010;4.446;2023-04-06T09:38:51;9.00;99.90
41294;DHT22;27037;52.010;4.446;2023-04-06T09:41:33;9.00;99.90
41294;DHT22;27037;52.010;4.446;2023-04-06T09:44:09;9.00;99.90
41294;DHT22;27037;52.010;4.446;2023-04-06T09:46:40;9.00;99.90
41294;DHT22;27037;52.010;4.446;2023-04-06T09:49:07;8.90;99.90
41294;DHT22;27037;52.010;4.446;2023-04-06T09:51:51;8.90;99.90
41294;DHT22;27037;52.010;4.446;2023-04-06T09:54:21;8.90;99.90
41294;DHT22;27037;52.010;4.446;2023-04-06T09:59:25;8.90;99.90
41294;DHT22;27037;52.010;4.446;2023-04-06T10:01:56;8.90;99.90
41294;DHT22;27037;52.010;4.446;2023-04-06T10:04:34;8.80;99.90
41294;DHT22;27037;52.010;4.446;2023-04-06T10:07:02;8.90;99.90
41294;DHT22;27037;52.010;4.446;2023-04-06T10:09:29;8.90;99.90
41294;DHT22;27037;52.010;4.446;2023-04-06T10:12:05;8.90;99.90
41294;DHT22;27037;52.010;4.446;2023-04-06T10:14:34;8.90;99.90
41294;DHT22;27037;52.010;4.446;2023-04-06T10:17:04;8.90;99.90
41294;DHT22;27037;52.010;4.446;2023-04-06T10:19:53;8.90;99.90
41294;DHT22;27037;52.010;4.446;2023-04-06T10:22:26;8.90;99.90
41294;DHT22;27037;52.010;4.446;2023-04-06T10:24:55;9.00;99.90
41294;DHT22;27037;52.010;4.446;2023-04-06T10:27:30;9.00;99.90
41294;DHT22;27037;52.010;4.446;2023-04-06T10:30:05;8.90;99.90
41294;DHT22;27037;52.010;4.446;2023-04-06T10:32:33;8.90;99.90
41294;DHT22;27037;52.010;4.446;2023-04-06T10:35:09;8.90;99.90
41294;DHT22;27037;52.010;4.446;2023-04-06T10:38:07;9.00;99.90
41294;DHT22;27037;52.010;4.446;2023-04-06T10:40:36;9.00;99.90
41294;DHT22;27037;52.010;4.446;2023-04-06T10:43:17;9.00;99.90
41294;DHT22;27037;52.010;4.446;2023-04-06T10:45:44;8.90;99.90
41294;DHT22;27037;52.010;4.446;2023-04-06T10:48:17;9.00;99.90
41294;DHT22;27037;52.010;4.446;2023-04-06T10:50:51;9.10;99.90
41294;DHT22;27037;52.010;4.446;2023-04-06T10:53:26;9.10;99.90
41294;DHT22;27037;52.010;4.446;2023-04-06T10:55:56;9.10;99.90
41294;DHT22;27037;52.010;4.446;2023-04-06T10:58:26;9.10;99.90
41294;DHT22;27037;52.010;4.446;2023-04-06T11:00:52;9.10;99.90
41294;DHT22;27037;52.010;4.446;2023-04-06T11:03:18;9.10;99.90
41294;DHT22;27037;52.010;4.446;2023-04-06T11:05:48;9.10;99.90
41294;DHT22;27037;52.010;4.446;2023-04-06T11:08:25;9.10;99.90
41294;DHT22;27037;52.010;4.446;2023-04-06T11:10:51;9.10;99.90
41294;DHT22;27037;52.010;4.446;2023-04-06T11:13:16;9.10;99.90
41294;DHT22;27037;52.010;4.446;2023-04-06T11:15:42;9.10;99.90
41294;DHT22;27037;52.010;4.446;2023-04-06T11:18:08;9.10;99.90
41294;DHT22;27037;52.010;4.446;2023-04-06T11:20:33;9.10;99.90
41294;DHT22;27037;52.010;4.446;2023-04-06T11:22:59;9.10;99.90
41294;DHT22;27037;52.010;4.446;2023-04-06T11:25:25;9.10;99.90
41294;DHT22;27037;52.010;4.446;2023-04-06T11:27:55;9.10;99.90
41294;DHT22;27037;52.010;4.446;2023-04-06T11:30:20;9.00;99.90
41294;DHT22;27037;52.010;4.446;2023-04-06T11:32:46;9.00;99.90
41294;DHT22;27037;52.010;4.446;2023-04-06T11:35:22;9.00;99.90
41294;DHT22;27037;52.010;4.446;2023-04-06T11:37:51;9.00;99.90
41294;DHT22;27037;52.010;4.446;2023-04-06T11:40:23;9.00;99.90
41294;DHT22;27037;52.010;4.446;2023-04-06T11:42:54;9.00;99.90
41294;DHT22;27037;52.010;4.446;2023-04-06T11:45:19;9.00;99.90
41294;DHT22;27037;52.010;4.446;2023-04-06T11:47:45;9.00;99.90
41294;DHT22;27037;52.010;4.446;2023-04-06T11:50:14;9.00;99.90
41294;DHT22;27037;52.010;4.446;2023-04-06T11:52:41;9.00;99.90
41294;DHT22;27037;52.010;4.446;2023-04-06T11:55:18;9.00;99.90
41294;DHT22;27037;52.010;4.446;2023-04-06T11:57:44;9.00;99.90
41294;DHT22;27037;52.010;4.446;2023-04-06T12:00:11;9.00;99.90
41294;DHT22;27037;52.010;4.446;2023-04-06T12:02:38;8.90;99.90
41294;DHT22;27037;52.010;4.446;2023-04-06T12:05:05;9.00;99.90
41294;DHT22;27037;52.010;4.446;2023-04-06T12:07:32;9.00;99.90
41294;DHT22;27037;52.010;4.446;2023-04-06T12:09:58;9.00;99.90
41294;DHT22;27037;52.010;4.446;2023-04-06T12:12:24;9.00;99.90
41294;DHT22;27037;52.010;4.446;2023-04-06T12:14:50;9.00;99.90
41294;DHT22;27037;52.010;4.446;2023-04-06T12:17:18;9.00;99.90
41294;DHT22;27037;52.010;4.446;2023-04-06T12:19:43;9.00;99.90
41294;DHT22;27037;52.010;4.446;2023-04-06T12:22:09;9.00;99.90
41294;DHT22;27037;52.010;4.446;2023-04-06T12:24:35;9.00;99.90
41294;DHT22;27037;52.010;4.446;2023-04-06T12:27:00;9.00;99.90
41294;DHT22;27037;52.010;4.446;2023-04-06T12:29:27;9.00;99.90
41294;DHT22;27037;52.010;4.446;2023-04-06T12:31:52;9.00;99.90
41294;DHT22;27037;52.010;4.446;2023-04-06T12:34:18;9.00;99.90
41294;DHT22;27037;52.010;4.446;2023-04-06T12:36:44;9.00;99.90
41294;DHT22;27037;52.010;4.446;2023-04-06T12:39:09;9.00;99.90
41294;DHT22;27037;52.010;4.446;2023-04-06T12:41:36;9.00;99.90
41294;DHT22;27037;52.010;4.446;2023-04-06T12:44:02;9.00;99.90
41294;DHT22;27037;52.010;4.446;2023-04-06T12:46:27;9.00;99.90
41294;DHT22;27037;52.010;4.446;2023-04-06T12:48:55;9.00;99.90
41294;DHT22;27037;52.010;4.446;2023-04-06T12:51:23;9.00;99.90
41294;DHT22;27037;52.010;4.446;2023-04-06T12:53:48;9.00;99.90
41294;DHT22;27037;52.010;4.446;2023-04-06T12:56:16;9.00;99.90
41294;DHT22;27037;52.010;4.446;2023-04-06T12:58:43;9.00;99.90
41294;DHT22;27037;52.010;4.446;2023-04-06T13:01:08;9.00;99.90
41294;DHT22;27037;52.010;4.446;2023-04-06T13:03:34;9.00;99.90
41294;DHT22;27037;52.010;4.446;2023-04-06T13:06:00;9.00;99.90
41294;DHT22;27037;52.010;4.446;2023-04-06T13:08:26;9.00;99.90
41294;DHT22;27037;52.010;4.446;2023-04-06T13:10:53;9.00;99.90
41294;DHT22;27037;52.010;4.446;2023-04-06T13:13:25;9.00;99.90
41294;DHT22;27037;52.010;4.446;2023-04-06T13:15:52;9.00;99.90
41294;DHT22;27037;52.010;4.446;2023-04-06T13:18:18;9.00;99.90
41294;DHT22;27037;52.010;4.446;2023-04-06T13:20:44;9.10;99.90
41294;DHT22;27037;52.010;4.446;2023-04-06T13:23:09;9.10;99.90
41294;DHT22;27037;52.010;4.446;2023-04-06T13:25:35;9.10;99.90
41294;DHT22;27037;52.010;4.446;2023-04-06T13:28:01;9.10;99.90
41294;DHT22;27037;52.010;4.446;2023-04-06T13:30:27;9.10;99.90
41294;DHT22;27037;52.010;4.446;2023-04-06T13:32:52;9.10;99.90
41294;DHT22;27037;52.010;4.446;2023-04-06T13:35:18;9.10;99.90
41294;DHT22;27037;52.010;4.446;2023-04-06T13:37:44;9.10;99.90
41294;DHT22;27037;52.010;4.446;2023-04-06T13:40:10;9.10;99.90
41294;DHT22;27037;52.010;4.446;2023-04-06T13:42:36;9.10;99.90
41294;DHT22;27037;52.010;4.446;2023-04-06T13:45:04;9.10;99.90
41294;DHT22;27037;52.010;4.446;2023-04-06T13:47:30;9.10;99.90
41294;DHT22;27037;52.010;4.446;2023-04-06T13:49:55;9.10;99.90
41294;DHT22;27037;52.010;4.446;2023-04-06T13:52:21;9.10;99.90
41294;DHT22;27037;52.010;4.446;2023-04-06T13:54:48;9.10;99.90
41294;DHT22;27037;52.010;4.446;2023-04-06T13:57:13;9.10;99.90
41294;DHT22;27037;52.010;4.446;2023-04-06T13:59:39;9.10;99.90
41294;DHT22;27037;52.010;4.446;2023-04-06T14:02:07;9.10;99.90
41294;DHT22;27037;52.010;4.446;2023-04-06T14:04:33;9.10;99.90
41294;DHT22;27037;52.010;4.446;2023-04-06T14:06:59;9.10;99.90
41294;DHT22;27037;52.010;4.446;2023-04-06T14:09:25;9.10;99.90
41294;DHT22;27037;52.010;4.446;2023-04-06T14:11:51;9.10;99.90
41294;DHT22;27037;52.010;4.446;2023-04-06T14:14:17;9.10;99.90
41294;DHT22;27037;52.010;4.446;2023-04-06T14:16:43;9.10;99.90
41294;DHT22;27037;52.010;4.446;2023-04-06T14:19:12;9.10;99.90
41294;DHT22;27037;52.010;4.446;2023-04-06T14:21:38;9.10;99.90
41294;DHT22;27037;52.010;4.446;2023-04-06T14:24:06;9.10;99.90
41294;DHT22;27037;52.010;4.446;2023-04-06T14:26:32;9.10;99.90
41294;DHT22;27037;52.010;4.446;2023-04-06T14:28:59;9.10;99.90
41294;DHT22;27037;52.010;4.446;2023-04-06T14:31:25;9.10;99.90
41294;DHT22;27037;52.010;4.446;2023-04-06T14:33:51;9.20;99.90
41294;DHT22;27037;52.010;4.446;2023-04-06T14:36:17;9.20;99.90
41294;DHT22;27037;52.010;4.446;2023-04-06T14:38:42;9.20;99.90
41294;DHT22;27037;52.010;4.446;2023-04-06T14:41:15;9.20;99.90
41294;DHT22;27037;52.010;4.446;2023-04-06T14:43:41;9.20;99.90
41294;DHT22;27037;52.010;4.446;2023-04-06T14:46:06;9.20;99.90
41294;DHT22;27037;52.010;4.446;2023-04-06T14:48:34;9.20;99.90
41294;DHT22;27037;52.010;4.446;2023-04-06T14:51:00;9.30;99.90
41294;DHT22;27037;52.010;4.446;2023-04-06T14:53:26;9.30;99.90
41294;DHT22;27037;52.010;4.446;2023-04-06T14:55:52;9.30;99.90
41294;DHT22;27037;52.010;4.446;2023-04-06T14:58:21;9.30;99.90
41294;DHT22;27037;52.010;4.446;2023-04-06T15:00:48;9.30;99.90
41294;DHT22;27037;52.010;4.446;2023-04-06T15:03:14;9.30;99.90
41294;DHT22;27037;52.010;4.446;2023-04-06T15:05:40;9.30;99.90
41294;DHT22;27037;52.010;4.446;2023-04-06T15:08:06;9.40;99.90
41294;DHT22;27037;52.010;4.446;2023-04-06T15:10:34;9.30;99.90
41294;DHT22;27037;52.010;4.446;2023-04-06T15:13:01;9.40;99.90
41294;DHT22;27037;52.010;4.446;2023-04-06T15:15:26;9.40;99.90
41294;DHT22;27037;52.010;4.446;2023-04-06T15:17:52;9.40;99.90
41294;DHT22;27037;52.010;4.446;2023-04-06T15:20:18;9.40;99.90
41294;DHT22;27037;52.010;4.446;2023-04-06T15:22:44;9.40;99.90
41294;DHT22;27037;52.010;4.446;2023-04-06T15:25:10;9.40;99.90
41294;DHT22;27037;52.010;4.446;2023-04-06T15:27:35;9.40;99.90
41294;DHT22;27037;52.010;4.446;2023-04-06T15:30:01;9.40;99.90
41294;DHT22;27037;52.010;4.446;2023-04-06T15:32:27;9.40;99.90
41294;DHT22;27037;52.010;4.446;2023-04-06T15:34:58;9.50;99.90
41294;DHT22;27037;52.010;4.446;2023-04-06T15:37:25;9.50;99.90
41294;DHT22;27037;52.010;4.446;2023-04-06T15:39:51;9.50;99.90
41294;DHT22;27037;52.010;4.446;2023-04-06T15:42:16;9.50;99.90
41294;DHT22;27037;52.010;4.446;2023-04-06T15:44:42;9.40;99.90
41294;DHT22;27037;52.010;4.446;2023-04-06T15:47:07;9.50;99.90